createdAt,value
2022-10-18T00:01:53.663Z,100696.88
2022-10-18T00:04:43.692Z,100700.59
2022-10-18T00:07:33.581Z,100695.34
2022-10-18T00:10:25.077Z,100693.75
2022-10-18T00:13:14.673Z,100688.78
2022-10-18T00:16:06.685Z,100693.03
2022-10-18T00:18:56.241Z,100689.41
2022-10-18T00:21:46.115Z,100691.75
2022-10-18T00:24:35.611Z,100709.56
2022-10-18T00:31:45.358Z,100704.81
2022-10-18T00:34:35.311Z,100706.38
2022-10-18T00:37:25.400Z,100709.03
2022-10-18T00:40:17.766Z,100697.28
2022-10-18T00:43:07.306Z,100703.25
2022-10-18T00:45:57.314Z,100698.75
2022-10-18T00:48:46.861Z,100699.13
2022-10-18T00:51:46.022Z,100704.13
2022-10-18T00:54:39.665Z,100708.13
2022-10-18T00:57:29.884Z,100707.09
2022-10-18T01:00:20.368Z,100709.28
2022-10-18T01:03:10.917Z,100708.47
2022-10-18T01:06:03.569Z,100712.72
2022-10-18T01:09:15.472Z,100717.34
2022-10-18T01:12:18.875Z,100722.34
2022-10-18T01:15:30.817Z,100716.25
2022-10-18T01:18:20.493Z,100725.84
2022-10-18T01:21:16.501Z,100724.22
2022-10-18T01:24:38.585Z,100729.28
2022-10-18T01:27:34.208Z,100722.84
2022-10-18T01:30:41.806Z,100729.75
2022-10-18T01:33:39.247Z,100735.41
2022-10-18T01:36:31.727Z,100736.84
2022-10-18T01:39:28.825Z,100730.19
2022-10-18T01:42:21.426Z,100729.19
2022-10-18T01:45:12.368Z,100732.41
2022-10-18T01:48:02.803Z,100722.50
2022-10-18T01:50:55.363Z,100721.47
2022-10-18T01:53:45.699Z,100718.41
2022-10-18T01:56:56.032Z,100723.81
2022-10-18T02:00:00.367Z,100715.50
2022-10-18T02:02:53.149Z,100721.97
2022-10-18T02:05:48.060Z,100711.16
2022-10-18T02:08:50.612Z,100704.47
2022-10-18T02:11:42.018Z,100696.81
2022-10-18T02:14:32.565Z,100705.56
2022-10-18T02:17:22.747Z,100701.84
2022-10-18T02:20:13.642Z,100693.97
2022-10-18T02:23:03.863Z,100697.31
2022-10-18T02:25:54.540Z,100707.34
2022-10-18T02:28:44.779Z,100700.25
2022-10-18T02:31:57.251Z,100686.53
2022-10-18T02:35:11.459Z,100689.00
2022-10-18T02:38:04.605Z,100676.72
2022-10-18T02:40:57.218Z,100677.34
2022-10-18T02:43:47.173Z,100674.00
2022-10-18T02:46:37.304Z,100675.25
2022-10-18T02:49:27.246Z,100664.44
2022-10-18T02:52:16.412Z,100671.13
2022-10-18T02:55:07.513Z,100665.50
2022-10-18T02:57:56.770Z,100663.63
2022-10-18T03:00:46.359Z,100646.53
2022-10-18T03:03:35.354Z,100644.66
2022-10-18T03:06:25.330Z,100642.78
2022-10-18T03:09:15.152Z,100635.88
2022-10-18T03:12:04.547Z,100629.03
2022-10-18T03:14:54.587Z,100624.88
2022-10-18T03:17:44.702Z,100625.72
2022-10-18T03:20:34.789Z,100615.53
2022-10-18T03:23:24.912Z,100612.97
2022-10-18T03:26:14.742Z,100603.63
2022-10-18T03:29:05.148Z,100596.94
2022-10-18T03:32:03.027Z,100601.09
2022-10-18T03:34:53.488Z,100607.78
2022-10-18T03:37:43.551Z,100600.91
2022-10-18T03:40:33.352Z,100601.16
2022-10-18T03:43:24.560Z,100587.38
2022-10-18T03:46:13.698Z,100588.19
2022-10-18T03:49:04.598Z,100579.47
2022-10-18T03:51:54.217Z,100571.78
2022-10-18T03:54:45.916Z,100576.94
2022-10-18T03:57:35.293Z,100576.09
2022-10-18T04:00:25.468Z,100563.19
2022-10-18T04:03:15.334Z,100560.09
2022-10-18T04:06:04.947Z,100551.75
2022-10-18T04:08:56.722Z,100551.94
2022-10-18T04:11:46.768Z,100535.22
2022-10-18T04:14:36.928Z,100526.88
2022-10-18T04:17:26.496Z,100527.47
2022-10-18T04:20:16.678Z,100529.53
2022-10-18T04:23:08.025Z,100521.75
2022-10-18T04:25:57.705Z,100529.19
2022-10-18T04:28:47.396Z,100526.44
2022-10-18T04:31:36.911Z,100526.63
2022-10-18T04:34:26.817Z,100528.31
2022-10-18T04:37:16.578Z,100525.41
2022-10-18T04:40:06.809Z,100518.91
2022-10-18T04:42:57.147Z,100517.81
2022-10-18T04:45:49.019Z,100499.38
2022-10-18T04:48:38.805Z,100496.03
2022-10-18T04:51:28.435Z,100485.34
2022-10-18T04:54:18.084Z,100486.94
2022-10-18T04:57:08.099Z,100489.44
2022-10-18T04:59:57.961Z,100485.16
2022-10-18T05:03:02.436Z,100478.69
2022-10-18T05:06:06.739Z,100480.84
2022-10-18T05:08:56.572Z,100472.41
2022-10-18T05:11:46.487Z,100480.75
2022-10-18T05:14:36.332Z,100470.72
2022-10-18T05:17:25.616Z,100460.31
2022-10-18T05:23:11.719Z,100466.13
2022-10-18T05:26:07.537Z,100459.75
2022-10-18T05:29:00.511Z,100447.97
2022-10-18T05:31:50.648Z,100446.78
2022-10-18T05:34:40.550Z,100445.41
2022-10-18T05:37:29.853Z,100434.81
2022-10-18T05:40:20.083Z,100427.56
2022-10-18T05:43:10.546Z,100423.19
2022-10-18T05:46:00.503Z,100423.69
2022-10-18T05:48:59.291Z,100418.31
2022-10-18T05:51:49.163Z,100419.19
2022-10-18T05:54:38.857Z,100406.97
2022-10-18T05:57:28.448Z,100408.41
2022-10-18T06:00:19.131Z,100402.59
2022-10-18T06:03:08.836Z,100395.94
2022-10-18T06:06:07.709Z,100403.91
2022-10-18T06:08:56.958Z,100401.44
2022-10-18T06:11:46.748Z,100400.38
2022-10-18T06:14:36.860Z,100404.75
2022-10-18T06:17:28.973Z,100415.63
2022-10-18T06:20:22.487Z,100418.78
2022-10-18T06:23:12.036Z,100417.72
2022-10-18T06:26:06.431Z,100412.97
2022-10-18T06:28:56.263Z,100415.28
2022-10-18T06:31:45.755Z,100429.88
2022-10-18T06:34:35.578Z,100428.63
2022-10-18T06:37:25.408Z,100422.78
2022-10-18T06:40:14.925Z,100421.13
2022-10-18T06:43:20.466Z,100407.38
2022-10-18T06:46:14.274Z,100416.56
2022-10-18T06:49:03.959Z,100402.75
2022-10-18T06:51:55.114Z,100400.91
2022-10-18T06:54:45.520Z,100395.69
2022-10-18T06:57:35.524Z,100390.13
2022-10-18T07:00:24.772Z,100391.16
2022-10-18T07:03:14.512Z,100395.75
2022-10-18T07:06:07.570Z,100391.16
2022-10-18T07:09:01.166Z,100399.13
2022-10-18T07:11:52.777Z,100406.66
2022-10-18T07:14:42.388Z,100406.22
2022-10-18T07:17:32.667Z,100396.84
2022-10-18T07:20:22.327Z,100399.31
2022-10-18T07:23:12.963Z,100399.13
2022-10-18T07:26:03.339Z,100392.47
2022-10-18T07:28:56.464Z,100398.78
2022-10-18T07:31:46.803Z,100400.88
2022-10-18T07:34:36.444Z,100395.00
2022-10-18T07:37:30.238Z,100399.41
2022-10-18T07:40:20.842Z,100414.69
2022-10-18T07:43:12.250Z,100407.16
2022-10-18T07:46:03.803Z,100403.59
2022-10-18T07:48:53.639Z,100404.69
2022-10-18T07:51:42.991Z,100412.63
2022-10-18T07:54:32.412Z,100402.59
2022-10-18T07:57:25.964Z,100408.63
2022-10-18T08:00:15.877Z,100426.75
2022-10-18T08:03:06.247Z,100433.03
2022-10-18T08:05:59.049Z,100442.44
2022-10-18T08:08:49.079Z,100456.19
2022-10-18T08:11:38.825Z,100460.16
2022-10-18T08:14:28.310Z,100453.50
2022-10-18T08:17:17.669Z,100456.03
2022-10-18T08:20:19.017Z,100461.88
2022-10-18T08:23:17.044Z,100466.47
2022-10-18T08:26:08.534Z,100466.50
2022-10-18T08:29:17.551Z,100466.91
2022-10-18T08:32:11.806Z,100462.56
2022-10-18T08:35:04.267Z,100461.75
2022-10-18T08:37:56.928Z,100476.56
2022-10-18T08:40:46.874Z,100471.94
2022-10-18T08:44:17.590Z,100483.81
2022-10-18T08:47:12.932Z,100485.25
2022-10-18T08:50:23.358Z,100494.03
2022-10-18T08:53:21.625Z,100498.59
2022-10-18T08:56:17.244Z,100495.06
2022-10-18T08:59:12.220Z,100501.97
2022-10-18T09:02:36.869Z,100515.28
2022-10-18T09:06:02.874Z,100520.72
2022-10-18T09:09:32.968Z,100527.56
2022-10-18T09:12:45.442Z,100529.47
2022-10-18T09:15:57.126Z,100541.13
2022-10-18T09:19:08.244Z,100544.88
2022-10-18T09:22:05.010Z,100560.28
2022-10-18T09:25:13.837Z,100563.59
2022-10-18T09:28:18.910Z,100573.16
2022-10-18T09:31:32.556Z,100564.84
2022-10-18T09:34:43.774Z,100567.94
2022-10-18T09:37:37.787Z,100573.16
2022-10-18T09:40:29.679Z,100577.94
2022-10-18T09:43:26.458Z,100579.41
2022-10-18T09:46:17.842Z,100581.25
2022-10-18T09:49:54.850Z,100596.03
2022-10-18T09:53:27.776Z,100594.38
2022-10-18T09:56:18.858Z,100591.88
2022-10-18T09:59:21.409Z,100587.31
2022-10-18T10:02:25.816Z,100587.31
2022-10-18T10:05:16.415Z,100592.09
2022-10-18T10:08:09.723Z,100596.25
2022-10-18T10:10:59.572Z,100596.88
2022-10-18T10:13:50.632Z,100589.78
2022-10-18T10:16:54.408Z,100595.59
2022-10-18T10:20:28.857Z,100595.59
2022-10-18T10:23:30.689Z,100599.94
2022-10-18T10:26:30.864Z,100599.94
2022-10-18T10:30:07.358Z,100612.84
2022-10-18T10:32:58.463Z,100613.88
2022-10-18T10:36:00.384Z,100617.63
2022-10-18T10:39:20.337Z,100609.31
2022-10-18T10:42:15.623Z,100615.31
2022-10-18T10:45:05.938Z,100617.22
2022-10-18T10:47:57.397Z,100617.22
2022-10-18T10:50:56.990Z,100625.56
2022-10-18T10:53:54.995Z,100632.63
2022-10-18T10:57:05.748Z,100641.78
2022-10-18T11:00:02.837Z,100650.88
2022-10-18T11:03:31.446Z,100655.91
2022-10-18T11:06:59.836Z,100666.31
2022-10-18T11:09:52.905Z,100670.03
2022-10-18T11:12:56.011Z,100681.69
2022-10-18T11:15:49.601Z,100678.56
2022-10-18T11:18:41.951Z,100681.25
2022-10-18T11:21:33.980Z,100685.00
2022-10-18T11:24:23.947Z,100686.69
2022-10-18T11:27:28.814Z,100691.22
2022-10-18T11:30:38.868Z,100692.09
2022-10-18T11:34:07.739Z,100696.63
2022-10-18T11:37:27.705Z,100704.13
2022-10-18T11:40:35.003Z,100702.91
2022-10-18T11:44:02.180Z,100700.78
2022-10-18T11:47:16.205Z,100708.72
2022-10-18T11:50:14.475Z,100710.78
2022-10-18T11:53:25.690Z,100714.13
2022-10-18T11:56:28.726Z,100721.59
2022-10-18T11:59:40.851Z,100714.13
2022-10-18T12:02:44.737Z,100725.34
2022-10-18T12:05:38.785Z,100718.19
2022-10-18T12:08:56.112Z,100726.16
2022-10-18T12:11:55.764Z,100718.28
2022-10-18T12:14:55.538Z,100725.81
2022-10-18T12:17:50.050Z,100728.50
2022-10-18T12:21:08.495Z,100719.94
2022-10-18T12:24:24.961Z,100721.84
2022-10-18T12:27:16.714Z,100728.16
2022-10-18T12:31:01.216Z,100736.69
2022-10-18T12:34:00.390Z,100737.91
2022-10-18T12:37:18.885Z,100743.50
2022-10-18T12:40:49.105Z,100746.22
2022-10-18T12:43:39.037Z,100745.75
2022-10-18T12:46:48.898Z,100749.97
2022-10-18T12:49:42.678Z,100743.25
2022-10-18T12:52:38.219Z,100737.09
2022-10-18T12:55:28.015Z,100741.91
2022-10-18T12:58:17.147Z,100739.63
2022-10-18T13:01:09.232Z,100747.75
2022-10-18T13:04:02.917Z,100740.91
2022-10-18T13:07:01.821Z,100735.50
2022-10-18T13:10:09.646Z,100744.25
2022-10-18T13:13:38.270Z,100746.09
2022-10-18T13:16:43.115Z,100754.03
2022-10-18T13:20:20.541Z,100751.31
2022-10-18T13:23:37.104Z,100754.22
2022-10-18T13:26:43.571Z,100741.31
2022-10-18T13:29:49.110Z,100749.44
2022-10-18T13:33:01.261Z,100749.44
2022-10-18T13:36:23.755Z,100749.44
2022-10-18T13:39:23.276Z,100746.72
2022-10-18T13:42:22.438Z,100757.72
2022-10-18T13:45:33.445Z,100754.19
2022-10-18T13:48:31.490Z,100761.69
2022-10-18T13:51:28.857Z,100760.41
2022-10-18T13:54:52.298Z,100761.22
2022-10-18T13:57:50.662Z,100772.28
2022-10-18T14:00:52.398Z,100769.56
2022-10-18T14:03:56.723Z,100777.03
2022-10-18T14:06:51.631Z,100773.31
2022-10-18T14:09:54.170Z,100781.22
2022-10-18T14:12:53.391Z,100780.38
2022-10-18T14:15:45.898Z,100779.94
2022-10-18T14:18:38.619Z,100775.72
2022-10-18T14:21:35.883Z,100773.22
2022-10-18T14:24:28.994Z,100774.44
2022-10-18T14:27:30.110Z,100783.81
2022-10-18T14:30:25.769Z,100787.53
2022-10-18T14:34:01.457Z,100788.56
2022-10-18T14:36:51.134Z,100793.59
2022-10-18T14:39:40.580Z,100793.97
2022-10-18T14:42:30.422Z,100784.84
2022-10-18T14:45:23.203Z,100778.56
2022-10-18T14:48:23.000Z,100778.41
2022-10-18T14:51:15.944Z,100786.50
2022-10-18T14:54:31.563Z,100790.63
2022-10-18T14:57:27.408Z,100791.03
2022-10-18T15:00:27.919Z,100791.41
2022-10-18T15:03:19.030Z,100798.03
2022-10-18T15:06:09.694Z,100791.41
2022-10-18T15:09:02.784Z,100813.22
2022-10-18T15:11:58.842Z,100821.53
2022-10-18T15:14:49.304Z,100817.16
2022-10-18T15:17:38.833Z,100819.88
2022-10-18T15:20:33.037Z,100813.81
2022-10-18T15:23:28.307Z,100810.88
2022-10-18T15:26:28.525Z,100802.13
2022-10-18T15:29:20.952Z,100790.66
2022-10-18T15:32:23.471Z,100782.94
2022-10-18T15:35:26.182Z,100778.56
2022-10-18T15:38:18.288Z,100773.56
2022-10-18T15:41:58.684Z,100773.94
2022-10-18T15:44:52.495Z,100756.44
2022-10-18T15:47:42.168Z,100747.13
2022-10-18T15:50:48.436Z,100741.00
2022-10-18T15:53:46.554Z,100742.03
2022-10-18T15:56:37.650Z,100740.38
2022-10-18T15:59:33.182Z,100741.63
2022-10-18T16:02:23.125Z,100752.81
2022-10-18T16:05:21.768Z,100746.38
2022-10-18T16:08:31.834Z,100748.22
2022-10-18T16:11:26.274Z,100748.22
2022-10-18T16:14:15.877Z,100748.69
2022-10-18T16:17:10.111Z,100744.50
2022-10-18T16:20:00.339Z,100747.19
2022-10-18T16:22:49.758Z,100737.81
2022-10-18T16:25:40.514Z,100744.47
2022-10-18T16:28:32.748Z,100741.94
2022-10-18T16:31:24.298Z,100738.56
2022-10-18T16:34:15.708Z,100747.69
2022-10-18T16:37:04.824Z,100749.13
2022-10-18T16:39:56.969Z,100747.66
2022-10-18T16:42:46.578Z,100746.81
2022-10-18T16:45:39.113Z,100737.63
2022-10-18T16:48:28.609Z,100730.94
2022-10-18T16:51:18.153Z,100727.97
2022-10-18T16:54:07.849Z,100721.13
2022-10-18T16:56:57.406Z,100722.13
2022-10-18T16:59:49.924Z,100720.00
2022-10-18T17:02:39.709Z,100716.47
2022-10-18T17:05:32.545Z,100708.78
2022-10-18T17:08:29.529Z,100702.09
2022-10-18T17:11:19.429Z,100708.44
2022-10-18T17:14:11.276Z,100707.59
2022-10-18T17:17:01.094Z,100704.44
2022-10-18T17:19:50.375Z,100711.03
2022-10-18T17:22:39.461Z,100713.56
2022-10-18T17:28:19.498Z,100707.88
2022-10-18T17:31:09.362Z,100706.41
2022-10-18T17:34:03.092Z,100693.94
2022-10-18T17:36:52.951Z,100697.66
2022-10-18T17:39:44.797Z,100714.41
2022-10-18T17:42:38.221Z,100708.38
2022-10-18T17:45:27.932Z,100711.28
2022-10-18T17:48:17.305Z,100718.72
2022-10-18T17:51:10.992Z,100722.84
2022-10-18T17:54:00.765Z,100732.78
2022-10-18T17:56:54.501Z,100743.97
2022-10-18T17:59:48.566Z,100749.94
2022-10-18T18:02:41.048Z,100754.69
2022-10-18T18:05:35.652Z,100753.38
2022-10-18T18:08:26.403Z,100750.69
2022-10-18T18:11:17.435Z,100755.44
2022-10-18T18:14:10.645Z,100756.28
2022-10-18T18:17:02.529Z,100760.84
2022-10-18T18:19:51.937Z,100748.75
2022-10-18T18:22:42.923Z,100734.97
2022-10-18T18:25:33.018Z,100718.78
2022-10-18T18:28:24.870Z,100702.97
2022-10-18T18:31:20.484Z,100701.31
2022-10-18T18:34:11.753Z,100707.91
2022-10-18T18:37:01.776Z,100702.03
2022-10-18T18:39:52.474Z,100702.03
2022-10-18T18:42:41.493Z,100690.16
2022-10-18T18:45:31.574Z,100682.06
2022-10-18T18:48:20.820Z,100668.09
2022-10-18T18:51:14.635Z,100661.69
2022-10-18T18:54:04.113Z,100664.97
2022-10-18T18:56:53.593Z,100663.44
2022-10-18T18:59:43.441Z,100665.34
2022-10-18T19:02:32.740Z,100670.25
2022-10-18T19:05:24.886Z,100668.56
2022-10-18T19:08:14.097Z,100671.66
2022-10-18T19:11:08.053Z,100667.28
2022-10-18T19:13:58.634Z,100667.66
2022-10-18T19:16:49.924Z,100671.75
2022-10-18T19:19:41.728Z,100671.75
2022-10-18T19:22:31.152Z,100661.97
2022-10-18T19:25:23.439Z,100666.72
2022-10-18T19:28:15.782Z,100675.19
2022-10-18T19:31:04.783Z,100675.19
2022-10-18T19:33:59.647Z,100667.94
2022-10-18T19:36:50.671Z,100676.19
2022-10-18T19:39:40.448Z,100677.06
2022-10-18T19:42:31.414Z,100670.56
2022-10-18T19:45:21.364Z,100672.84
2022-10-18T19:48:13.508Z,100667.03
2022-10-18T19:51:09.617Z,100665.34
2022-10-18T19:54:00.164Z,100665.34
2022-10-18T19:56:50.587Z,100664.91
2022-10-18T20:02:30.486Z,100662.19
2022-10-18T20:05:19.749Z,100667.38
2022-10-18T20:08:09.167Z,100658.16
2022-10-18T20:11:01.805Z,100651.94
2022-10-18T20:13:53.059Z,100642.81
2022-10-18T20:16:41.977Z,100639.31
2022-10-18T20:19:31.044Z,100647.38
2022-10-18T20:22:21.037Z,100648.41
2022-10-18T20:25:10.801Z,100647.38
2022-10-18T20:27:59.933Z,100646.09
2022-10-18T20:30:50.106Z,100645.59
2022-10-18T20:33:39.179Z,100650.19
2022-10-18T20:36:29.697Z,100651.84
2022-10-18T20:39:18.982Z,100650.19
2022-10-18T20:42:08.445Z,100641.88
2022-10-18T20:44:57.482Z,100654.06
2022-10-18T20:47:48.349Z,100657.97
2022-10-18T20:50:42.867Z,100657.13
2022-10-18T20:53:34.795Z,100665.84
2022-10-18T20:56:27.854Z,100661.03
2022-10-18T20:59:18.016Z,100666.22
2022-10-18T21:02:07.136Z,100666.44
2022-10-18T21:04:56.776Z,100678.22
2022-10-18T21:07:45.896Z,100673.19
2022-10-18T21:10:35.826Z,100681.94
2022-10-18T21:13:28.018Z,100687.31
2022-10-18T21:16:17.535Z,100685.44
2022-10-18T21:19:09.156Z,100689.38
2022-10-18T21:22:01.689Z,100694.09
2022-10-18T21:24:52.174Z,100702.19
2022-10-18T21:27:42.603Z,100701.53
2022-10-18T21:30:31.761Z,100706.25
2022-10-18T21:33:21.200Z,100709.97
2022-10-18T21:36:12.318Z,100706.63
2022-10-18T21:39:03.133Z,100708.09
2022-10-18T21:41:52.797Z,100711.00
2022-10-18T21:44:42.339Z,100716.38
2022-10-18T21:47:31.523Z,100722.78
2022-10-18T21:50:21.464Z,100720.91
2022-10-18T21:53:11.331Z,100725.28
2022-10-18T21:56:15.031Z,100731.69
2022-10-18T21:59:08.446Z,100745.34
2022-10-18T22:01:58.671Z,100748.22
2022-10-18T22:04:48.711Z,100755.47
2022-10-18T22:07:38.360Z,100758.16
2022-10-18T22:10:28.316Z,100757.88
2022-10-18T22:13:18.492Z,100767.97
2022-10-18T22:16:09.140Z,100769.81
2022-10-18T22:19:01.016Z,100781.44
2022-10-18T22:21:50.338Z,100783.94
2022-10-18T22:24:39.751Z,100791.38
2022-10-18T22:27:33.731Z,100792.22
2022-10-18T22:30:23.517Z,100790.19
2022-10-18T22:33:13.348Z,100797.41
2022-10-18T22:36:03.314Z,100792.22
2022-10-18T22:38:52.627Z,100795.94
2022-10-18T22:41:42.984Z,100801.69
2022-10-18T22:44:32.726Z,100807.88
2022-10-18T22:47:23.280Z,100813.28
2022-10-18T22:50:13.124Z,100815.97
2022-10-18T22:53:02.301Z,100815.16
2022-10-18T22:56:00.655Z,100823.38
2022-10-18T22:59:00.635Z,100834.00
2022-10-18T23:01:50.825Z,100832.97
2022-10-18T23:04:40.428Z,100828.59
2022-10-18T23:07:30.552Z,100828.59
2022-10-18T23:10:19.883Z,100835.66
2022-10-18T23:13:12.605Z,100841.88
2022-10-18T23:16:05.042Z,100831.97
2022-10-18T23:18:56.457Z,100840.19
2022-10-18T23:21:45.764Z,100840.19
2022-10-18T23:24:35.765Z,100844.41
2022-10-18T23:27:25.192Z,100845.72
2022-10-18T23:30:14.772Z,100841.72
2022-10-18T23:33:04.374Z,100850.63
2022-10-18T23:35:54.227Z,100856.88
2022-10-18T23:38:44.778Z,100856.88
2022-10-18T23:41:39.801Z,100864.91
2022-10-18T23:44:31.857Z,100868.56
2022-10-18T23:47:21.567Z,100875.56
2022-10-18T23:50:11.923Z,100876.03
2022-10-18T23:53:01.949Z,100881.25
2022-10-18T23:56:00.622Z,100884.53
2022-10-18T23:58:50.367Z,100883.53
